Time;durP1;ratioP1;P1;durP2;ratioP2;P2;SDS_P1;SDS_P2;PMS_P1;PMS_P2;Temp;Humidity;BMP_temperature;BMP_pressure;BME280_temperature;BME280_humidity;BME280_pressure;Samples;Min_cycle;Max_cycle;Signal;HPM_P1;HPM_P2
2022/03/14 00:21:24;;;;;;;15.27;10.93;;;;;;;;;;6245037;22;20110;-91
2022/03/14 00:27:03;;;;;;;13.23;9.95;;;;;;;;;;6147277;23;20020;-90
2022/03/14 00:29:29;;;;;;;19.63;10.18;;;;;;;;;;6165372;23;20248;-90
2022/03/14 00:32:05;;;;;;;22.85;10.60;;;;;;;;;;6188390;23;20016;-91
2022/03/14 00:34:31;;;;;;;18.65;10.63;;;;;;;;;;6186453;23;20042;-91
2022/03/14 00:36:57;;;;;;;16.52;10.20;;;;;;;;;;6187619;23;20016;-92
2022/03/14 00:39:23;;;;;;;13.65;10.57;;;;;;;;;;6167815;23;20047;-91
2022/03/14 00:48:03;;;;;;;14.65;10.52;;;;;;;;;;6121561;23;20029;-89
2022/03/14 00:50:54;;;;;;;13.07;10.73;;;;;;;;;;6123509;23;20096;-90
2022/03/14 00:53:20;;;;;;;15.15;10.30;;;;;;;;;;6093329;23;20345;-89
2022/03/14 00:55:47;;;;;;;15.27;10.73;;;;;;;;;;6095464;23;20104;-89
2022/03/14 00:58:22;;;;;;;15.00;10.70;;;;;;;;;;6091379;23;20021;-89
2022/03/14 01:00:54;;;;;;;19.05;10.98;;;;;;;;;;6119608;23;20346;-88
2022/03/14 01:03:27;;;;;;;13.68;10.52;;;;;;;;;;6091315;23;20021;-89
2022/03/14 01:12:35;;;;;;;23.75;12.35;;;;;;;;;;6116080;23;20017;-87
2022/03/14 01:15:02;;;;;;;14.23;11.02;;;;;;;;;;6119925;23;20033;-87
2022/03/14 01:58:48;;;;;;;14.82;11.30;;;;;;;;;;6174726;23;20028;-90
2022/03/14 02:05:06;;;;;;;14.98;11.90;;;;;;;;;;6204863;23;20075;-93
2022/03/14 02:07:38;;;;;;;15.48;12.40;;;;;;;;;;6184713;23;20039;-92
2022/03/14 02:10:31;;;;;;;14.68;12.13;;;;;;;;;;6211520;23;20028;-92
2022/03/14 02:13:19;;;;;;;16.83;12.13;;;;;;;;;;6211892;23;20075;-91
2022/03/14 02:16:11;;;;;;;17.05;12.98;;;;;;;;;;6162425;22;20023;-92
2022/03/14 02:19:06;;;;;;;16.63;11.85;;;;;;;;;;6199696;23;20420;-92
2022/03/14 02:21:33;;;;;;;16.08;12.45;;;;;;;;;;6178219;23;20026;-94
2022/03/14 02:24:06;;;;;;;14.63;12.43;;;;;;;;;;6195951;23;20021;-92
2022/03/14 02:27:03;;;;;;;14.80;11.60;;;;;;;;;;6201909;23;20025;-93
2022/03/14 02:29:35;;;;;;;17.80;12.27;;;;;;;;;;6172606;23;20720;-93
2022/03/14 02:35:32;;;;;;;15.93;11.82;;;;;;;;;;6213419;23;20085;-93
2022/03/14 02:38:23;;;;;;;17.98;12.48;;;;;;;;;;6235809;23;20035;-91
2022/03/14 02:40:49;;;;;;;17.73;12.57;;;;;;;;;;6245361;23;20473;-92
2022/03/14 02:43:24;;;;;;;15.27;11.95;;;;;;;;;;6253145;23;20059;-91
2022/03/14 02:45:51;;;;;;;16.98;13.05;;;;;;;;;;6258306;23;20028;-91
2022/03/14 02:48:33;;;;;;;16.88;12.35;;;;;;;;;;6255601;22;20508;-94
2022/03/14 02:54:43;;;;;;;16.95;12.10;;;;;;;;;;6239246;23;20038;-94
2022/03/14 02:57:20;;;;;;;16.48;11.57;;;;;;;;;;6238665;23;20029;-93
2022/03/14 02:59:49;;;;;;;15.55;11.55;;;;;;;;;;6210900;23;20024;-94
2022/03/14 03:02:29;;;;;;;;;;;;;;;;;;;;;
2022/03/14 03:16:56;;;;;;;19.63;12.95;;;;;;;;;;6273690;22;20026;-90
2022/03/14 03:19:22;;;;;;;15.57;12.13;;;;;;;;;;6250342;22;20020;-91
2022/03/14 03:21:48;;;;;;;16.58;12.30;;;;;;;;;;6219006;22;20020;-89
2022/03/14 03:28:15;;;;;;;15.38;11.98;;;;;;;;;;6265776;22;20014;-88
2022/03/14 03:31:22;;;;;;;16.30;11.82;;;;;;;;;;6266537;22;20099;-89
2022/03/14 03:33:50;;;;;;;14.40;12.02;;;;;;;;;;6264365;22;20016;-88
2022/03/14 03:36:19;;;;;;;17.42;13.10;;;;;;;;;;6265710;22;20028;-89
2022/03/14 03:38:45;;;;;;;16.13;12.00;;;;;;;;;;6238880;22;20055;-91
2022/03/14 03:41:18;;;;;;;14.85;12.13;;;;;;;;;;6187198;22;20027;-90
2022/03/14 03:54:26;;;;;;;16.13;12.57;;;;;;;;;;6271911;22;20019;-90
2022/03/14 04:00:55;;;;;;;17.25;12.27;;;;;;;;;;6271250;22;20030;-90
2022/03/14 04:03:27;;;;;;;16.83;12.48;;;;;;;;;;6268167;22;20019;-89
2022/03/14 04:09:15;;;;;;;16.20;11.88;;;;;;;;;;6269774;22;20201;-90
2022/03/14 04:12:06;;;;;;;14.35;12.07;;;;;;;;;;6268604;22;20020;-88
2022/03/14 04:14:32;;;;;;;14.90;11.77;;;;;;;;;;6241467;22;20694;-91
2022/03/14 04:17:20;;;;;;;14.13;11.68;;;;;;;;;;6268352;22;20024;-90
2022/03/14 04:19:48;;;;;;;15.25;11.55;;;;;;;;;;6239772;22;20084;-90
2022/03/14 04:22:16;;;;;;;15.95;11.32;;;;;;;;;;6269016;22;20020;-89
2022/03/14 04:24:55;;;;;;;15.43;11.48;;;;;;;;;;6241553;22;20027;-89
2022/03/14 04:31:27;;;;;;;13.05;10.70;;;;;;;;;;6258095;22;20081;-88
2022/03/14 04:34:44;;;;;;;15.10;10.82;;;;;;;;;;6230063;23;20503;-88
2022/03/14 04:37:53;;;;;;;12.45;10.43;;;;;;;;;;6207281;23;20059;-88
2022/03/14 04:40:50;;;;;;;14.13;9.55;;;;;;;;;;6203561;23;20085;-88
2022/03/14 04:43:16;;;;;;;13.10;9.70;;;;;;;;;;6206251;23;20524;-89
2022/03/14 04:45:43;;;;;;;19.90;10.57;;;;;;;;;;6180768;23;20020;-88
2022/03/14 04:48:21;;;;;;;11.63;10.15;;;;;;;;;;6219529;23;20042;-91
2022/03/14 05:00:17;;;;;;;12.05;9.82;;;;;;;;;;6240707;22;20020;-89
2022/03/14 05:20:40;;;;;;;11.70;8.93;;;;;;;;;;6172719;23;20491;-90
2022/03/14 05:32:28;;;;;;;11.02;9.27;;;;;;;;;;6229296;22;20050;-90
2022/03/14 05:38:38;;;;;;;11.57;9.68;;;;;;;;;;6261179;22;20050;-89
2022/03/14 05:41:07;;;;;;;11.43;9.82;;;;;;;;;;6234779;22;20023;-91
2022/03/14 05:47:19;;;;;;;10.75;8.82;;;8.50;99.90;;;;;;6261224;22;20058;-89
2022/03/14 05:53:14;;;;;;;10.73;8.40;;;;;;;;;;6267583;22;20093;-91
2022/03/14 08:35:30;;;;;;;12.90;10.77;;;;;;;;;;6263571;22;20446;-90
2022/03/14 08:38:02;;;;;;;11.95;10.52;;;;;;;;;;6213557;22;20024;-88
2022/03/14 08:40:34;;;;;;;12.75;9.98;;;;;;;;;;6263514;22;20344;-89
2022/03/14 08:46:07;;;;;;;13.20;10.43;;;;;;;;;;6266199;22;20349;-89
2022/03/14 08:55:31;;;;;;;12.90;10.27;;;;;;;;;;6271243;22;20078;-88
2022/03/14 08:57:57;;;;;;;13.48;11.43;;;;;;;;;;6268297;22;20020;-90
2022/03/14 09:00:38;;;;;;;14.27;11.65;;;;;;;;;;6267447;22;20020;-89
2022/03/14 09:06:01;;;;;;;16.13;11.90;;;;;;;;;;6244843;22;20031;-88
2022/03/14 09:08:32;;;;;;;16.38;13.02;;;;;;;;;;6241631;22;20444;-88
2022/03/14 09:11:14;;;;;;;16.13;11.73;;;;;;;;;;6268398;22;20028;-87
2022/03/14 09:13:51;;;;;;;14.77;12.27;;;;;;;;;;6267771;22;20030;-87
2022/03/14 09:16:36;;;;;;;15.43;12.88;;;;;;;;;;6268388;22;20020;-88
2022/03/14 09:22:21;;;;;;;15.93;13.60;;;;;;;;;;6270509;22;20105;-88
2022/03/14 09:38:29;;;;;;;15.15;12.80;;;;;;;;;;6269299;22;20068;-87
2022/03/14 09:44:02;;;;;;;22.20;14.50;;;;;;;;;;6241294;22;20047;-86
2022/03/14 10:04:22;;;;;;;19.58;14.25;;;;;;;;;;6264074;22;20852;-87
2022/03/14 10:06:49;;;;;;;24.60;15.35;;;;;;;;;;6238472;22;20031;-87
2022/03/14 10:23:29;;;;;;;18.67;14.45;;;;;;;;;;6262797;22;20007;-86
2022/03/14 10:25:59;;;;;;;20.60;15.48;;;;;;;;;;6265989;22;20034;-86
2022/03/14 10:28:38;;;;;;;;;;;;;;;;;;;;;
2022/03/14 10:31:40;;;;;;;20.70;15.18;;;;;;;;;;6263036;22;20085;-87
2022/03/14 10:34:23;;;;;;;19.23;15.35;;;;;;;;;;6266396;22;20019;-88
2022/03/14 10:36:51;;;;;;;21.60;15.48;;;;;;;;;;6235713;22;20020;-87
2022/03/14 10:39:30;;;;;;;20.75;16.08;;;;;;;;;;6267986;22;20348;-89
2022/03/14 10:48:45;;;;;;;24.08;18.15;;;;;;;;;;6268745;22;20070;-86
2022/03/14 10:51:24;;;;;;;28.55;18.55;;;;;;;;;;6238568;22;20022;-87
2022/03/14 11:01:24;;;;;;;29.88;20.58;;;;;;;;;;6266785;22;20042;-87
2022/03/14 11:24:13;;;;;;;31.17;16.83;;;;;;;;;;6242362;22;20020;-90
2022/03/14 11:26:41;;;;;;;40.50;17.38;;;;;;;;;;6272088;22;20019;-91
2022/03/14 11:29:08;;;;;;;34.28;17.38;;;;;;;;;;6243345;22;20085;-92
2022/03/14 11:31:34;;;;;;;34.38;16.65;;;;;;;;;;6270729;22;20026;-93
2022/03/14 11:34:02;;;;;;;39.17;17.92;;;;;;;;;;6274069;22;20028;-82
2022/03/14 11:36:29;;;;;;;37.08;17.63;;;;;;;;;;6292085;22;20027;-91
2022/03/14 11:38:56;;;;;;;34.25;16.42;;;;;;;;;;6253773;22;20054;-87
2022/03/14 11:41:22;;;;;;;42.33;17.73;;;;;;;;;;6285183;22;20152;-83
2022/03/14 11:43:48;;;;;;;42.35;18.35;;;;;;;;;;6245813;22;20059;-91
2022/03/14 11:46:14;;;;;;;40.33;17.02;;;;;;;;;;6247203;22;20016;-96
2022/03/14 11:48:41;;;;;;;39.08;16.67;;;;;;;;;;6271420;22;20078;-93
2022/03/14 11:51:07;;;;;;;46.83;19.10;;;;;;;;;;6274586;22;20027;-95
2022/03/14 11:53:34;;;;;;;47.13;18.73;;;;;;;;;;6199830;22;20016;-94
2022/03/14 11:56:08;;;;;;;47.65;20.00;;;;;;;;;;6275050;22;20019;-87
2022/03/14 11:58:35;;;;;;;51.17;20.38;;;;;;;;;;6247852;22;20095;-92
2022/03/14 12:01:24;;;;;;;50.15;17.63;;;;;;;;;;6275485;22;20027;-94
2022/03/14 12:03:57;;;;;;;40.90;16.98;;;;;;;;;;6262240;22;20111;-87
2022/03/14 12:09:37;;;;;;;45.92;16.27;;;;;;;;;;6252182;22;20023;-96
2022/03/14 12:12:22;;;;;;;42.95;16.13;;;;;;;;;;6253085;22;20127;-96
2022/03/14 12:14:56;;;;;;;36.55;15.52;;;;;;;;;;6286582;22;20022;-92
2022/03/14 12:17:23;;;;;;;33.65;13.82;;;;;;;;;;6278947;22;20055;-84
2022/03/14 12:20:06;;;;;;;31.50;12.55;;;;;;;;;;6248013;22;20042;-84
2022/03/14 12:22:41;;;;;;;34.75;13.13;;;;;;;;;;6265129;22;20096;-91
2022/03/14 12:25:08;;;;;;;33.20;14.15;;;;;;;;;;6268493;22;20102;-83
2022/03/14 12:27:39;;;;;;;42.47;14.80;;;;;;;;;;6243024;22;20416;-86
2022/03/14 12:30:19;;;;;;;34.80;13.73;;;;;;;;;;6242256;22;20058;-83
2022/03/14 12:32:48;;;;;;;30.92;12.95;;;;;;;;;;6243924;22;20100;-83
2022/03/14 12:35:18;;;;;;;30.60;12.98;;;;;;;;;;6271662;22;20364;-83
2022/03/14 12:37:52;;;;;;;29.77;12.60;;;;;;;;;;6270537;22;20027;-91
2022/03/14 12:40:21;;;;;;;33.28;14.70;;;;;;;;;;6242603;22;20026;-84
2022/03/14 12:43:18;;;;;;;32.20;13.90;;;;;;;;;;6271401;22;20046;-83
2022/03/14 12:45:56;;;;;;;34.80;14.63;;;;;;;;;;6243379;22;20033;-83
2022/03/14 12:48:29;;;;;;;33.95;15.32;;;;;;;;;;6268154;22;20043;-85
2022/03/14 12:51:01;;;;;;;35.90;15.70;;;;;;;;;;6273287;22;20023;-84
2022/03/14 12:53:27;;;;;;;35.40;15.43;;;;;;;;;;6242164;22;20098;-87
2022/03/14 12:55:58;;;;;;;34.53;14.25;;;;;;;;;;6245643;22;20351;-84
2022/03/14 12:58:26;;;;;;;30.48;14.88;;;;;;;;;;6246992;22;20026;-94
2022/03/14 13:00:54;;;;;;;39.83;15.25;;;;;;;;;;6247175;22;20138;-96
2022/03/14 13:03:21;;;;;;;35.65;14.73;;;;;;;;;;6249279;22;20114;-93
2022/03/14 13:05:47;;;;;;;35.38;15.35;;;;;;;;;;6278816;22;20020;-95
2022/03/14 13:08:14;;;;;;;40.47;14.77;;;;;;;;;;6271968;22;20341;-83
2022/03/14 13:10:41;;;;;;;39.78;16.42;;;;;;;;;;6195510;22;20051;-81
2022/03/14 13:13:25;;;;;;;38.40;15.80;;;;;;;;;;6244026;22;20016;-83
2022/03/14 13:16:19;;;;;;;37.17;14.93;;;;;;;;;;6256233;22;20027;-83
2022/03/14 13:18:49;;;;;;;30.13;14.60;;;;;;;;;;6263075;22;20027;-82
2022/03/14 13:21:20;;;;;;;35.05;15.95;;;;;;;;;;6291973;22;20030;-82
2022/03/14 13:23:47;;;;;;;38.17;16.10;;;;;;;;;;6247337;22;21145;-83
2022/03/14 13:26:13;;;;;;;37.15;16.75;;;;;;;;;;6240242;22;20016;-83
2022/03/14 13:28:40;;;;;;;34.47;15.15;;;;;;;;;;6262420;22;20027;-83
2022/03/14 13:31:09;;;;;;;39.40;16.63;;;;;;;;;;6190384;22;20439;-83
2022/03/14 13:33:37;;;;;;;33.13;15.50;;;;;;;;;;6236443;22;20141;-84
2022/03/14 13:36:25;;;;;;;30.27;16.40;;;;;;;;;;6239710;22;20020;-84
2022/03/14 13:39:22;;;;;;;30.23;14.90;;;10.10;99.90;;;;;;6237319;22;20019;-83
2022/03/14 13:48:33;;;;;;;38.75;17.25;;;;;;;;;;6269284;22;20019;-83
2022/03/14 13:54:45;;;;;;;36.65;16.50;;;10.10;99.90;;;;;;6266653;22;20095;-82
2022/03/14 13:57:26;;;;;;;32.42;16.40;;;;;;;;;;6237249;22;20020;-84
2022/03/14 13:59:59;;;;;;;28.67;17.23;;;;;;;;;;6267062;22;20024;-82
2022/03/14 14:02:32;;;;;;;29.85;17.25;;;;;;;;;;6213492;22;20069;-86
2022/03/14 14:05:21;;;;;;;28.45;17.70;;;;;;;;;;6240458;22;20027;-93
2022/03/14 14:08:07;;;;;;;37.72;19.38;;;;;;;;;;6240217;22;20474;-84
2022/03/14 14:10:47;;;;;;;36.05;18.65;;;;;;;;;;6241463;22;20464;-83
2022/03/14 14:13:42;;;;;;;49.58;20.63;;;;;;;;;;6216817;22;20857;-90
2022/03/14 14:16:27;;;;;;;36.97;17.88;;;;;;;;;;6267545;22;20023;-94
2022/03/14 14:22:11;;;;;;;40.78;16.30;;;;;;;;;;6274049;22;20100;-95
2022/03/14 14:24:37;;;;;;;37.80;16.50;;;;;;;;;;6273914;22;20020;-85
2022/03/14 14:27:15;;;;;;;36.65;15.50;;;;;;;;;;6243917;22;20458;-96
2022/03/14 14:29:45;;;;;;;38.75;14.00;;;;;;;;;;6264710;22;20097;-90
2022/03/14 14:32:18;;;;;;;33.00;12.98;;;;;;;;;;6267510;22;20452;-93
2022/03/14 14:35:00;;;;;;;28.30;11.63;;;;;;;;;;6267465;22;20026;-85
2022/03/14 14:37:26;;;;;;;24.80;10.18;;;;;;;;;;6269242;22;20050;-85
2022/03/14 14:39:52;;;;;;;22.45;9.50;;;;;;;;;;6268513;22;20094;-86
2022/03/14 14:42:18;;;;;;;32.83;13.18;;;;;;;;;;6241615;22;20028;-94
2022/03/14 14:44:44;;;;;;;19.67;11.35;;;;;;;;;;6267413;22;20023;-83
2022/03/14 14:47:12;;;;;;;22.02;9.90;;;;;;;;;;6191466;22;20024;-93
2022/03/14 14:49:40;;;;;;;27.98;10.35;;;;;;;;;;6245587;22;20012;-94
2022/03/14 14:52:15;;;;;;;24.88;13.05;;;;;;;;;;6234023;23;20059;-85
2022/03/14 14:54:42;;;;;;;21.88;9.35;;;;;;;;;;6209711;23;20020;-87
2022/03/14 14:57:08;;;;;;;21.33;9.90;;;;;;;;;;6247592;22;20123;-85
2022/03/14 14:59:35;;;;;;;22.38;8.85;;;;;;;;;;6253208;22;20024;-91
2022/03/14 15:02:03;;;;;;;23.20;9.43;;;;;;;;;;6247987;22;20027;-89
2022/03/14 15:04:30;;;;;;;27.85;10.07;;;;;;;;;;6210004;23;20414;-93
2022/03/14 15:06:59;;;;;;;18.75;8.88;;;;;;;;;;6233874;23;20020;-90
2022/03/14 15:09:25;;;;;;;26.02;8.52;;;;;;;;;;6234584;23;20085;-96
2022/03/14 15:11:51;;;;;;;23.95;8.07;;;;;;;;;;6234325;23;20020;-92
2022/03/14 15:14:18;;;;;;;18.98;6.43;;;;;;;;;;6209277;23;20031;-93
2022/03/14 15:16:52;;;;;;;18.42;7.00;;;;;;;;;;6236152;23;20122;-85
2022/03/14 15:19:28;;;;;;;;;;;;;;;;;;6236161;23;20016;-96
2022/03/14 15:21:54;;;;;;;14.83;6.27;;;;;;;;;;6186706;23;1114243;-92
2022/03/14 15:24:20;;;;;;;14.80;5.90;;;;;;;;;;6240907;23;20468;-93
2022/03/14 15:26:47;;;;;;;16.85;6.15;;;;;;;;;;6213033;23;20078;-95
2022/03/14 15:29:13;;;;;;;17.98;5.50;;;;;;;;;;6242250;23;20093;-92
2022/03/14 15:31:39;;;;;;;16.20;5.00;;;;;;;;;;6241996;23;20401;-93
2022/03/14 15:34:05;;;;;;;17.27;5.57;;;;;;;;;;6240133;23;20081;-91
2022/03/14 15:36:31;;;;;;;22.17;7.05;;;;;;;;;;6240335;23;20446;-94
2022/03/14 15:38:59;;;;;;;23.15;5.80;;;;;;;;;;6252050;23;20020;-91
2022/03/14 15:41:25;;;;;;;15.18;5.60;;;;;;;;;;6261434;23;20104;-94
2022/03/14 15:43:52;;;;;;;15.32;6.43;;;;;;;;;;6256701;23;20078;-91
2022/03/14 15:46:19;;;;;;;23.00;5.68;;;;;;;;;;6256807;23;20024;-90
2022/03/14 15:48:45;;;;;;;17.45;4.80;;;;;;;;;;6211465;23;20008;-96
2022/03/14 15:51:29;;;;;;;16.38;5.22;;;;;;;;;;6264082;23;20016;-90
2022/03/14 15:54:14;;;;;;;16.75;6.07;;;;;;;;;;6267572;23;20012;-85
2022/03/14 15:56:45;;;;;;;14.40;5.03;;;;;;;;;;6260076;22;20084;-88
2022/03/14 15:59:11;;;;;;;15.45;5.53;;;;;;;;;;6266548;23;20069;-87
2022/03/14 16:01:37;;;;;;;17.08;6.35;;;;;;;;;;6265388;23;20016;-86
2022/03/14 16:04:03;;;;;;;15.38;6.05;;;;;;;;;;6266785;23;20064;-86
2022/03/14 16:06:29;;;;;;;16.98;5.57;;;;;;;;;;6266200;23;20018;-91
2022/03/14 16:08:55;;;;;;;14.43;5.10;;;;;;;;;;6215147;23;20040;-85
2022/03/14 16:11:22;;;;;;;15.40;5.78;;;;;;;;;;6241088;23;20036;-83
2022/03/14 16:13:48;;;;;;;13.20;4.80;;;;;;;;;;6237816;23;20452;-89
2022/03/14 16:16:25;;;;;;;22.73;5.53;;;;;;;;;;6258563;23;20020;-93
2022/03/14 16:22:21;;;;;;;17.90;5.50;;;;;;;;;;6267472;23;20110;-82
2022/03/14 16:24:47;;;;;;;17.48;5.53;;;;;;;;;;6268336;22;20035;-82
2022/03/14 16:27:16;;;;;;;18.25;4.85;;;;;;;;;;6252007;23;20016;-81
2022/03/14 16:29:44;;;;;;;21.75;5.10;;;;;;;;;;6241884;23;20054;-83
2022/03/14 16:32:12;;;;;;;13.55;4.50;;;;;;;;;;6242773;23;20019;-82
2022/03/14 16:37:43;;;;;;;16.30;4.15;;;;;;;;;;6241357;23;20064;-82
2022/03/14 16:40:09;;;;;;;16.30;3.70;;;;;;;;;;6269750;22;20063;-84
2022/03/14 16:42:39;;;;;;;18.92;4.40;;;;;;;;;;6271327;22;20062;-93
2022/03/14 16:45:06;;;;;;;17.08;4.53;;;;;;;;;;6254765;23;20380;-94
2022/03/14 16:47:32;;;;;;;14.27;4.63;;;;;;;;;;6224627;23;20020;-94
2022/03/14 16:49:58;;;;;;;15.20;4.03;;;;;;;;;;6222273;23;20020;-87
2022/03/14 16:52:40;;;;;;;17.88;4.05;;;;;;;;;;6211843;23;20035;-90
2022/03/14 16:55:10;;;;;;;18.08;4.20;;;;;;;;;;6214491;23;20015;-93
2022/03/14 16:57:37;;;;;;;19.17;4.03;;;;;;;;;;6242281;23;20013;-89
2022/03/14 17:00:04;;;;;;;21.48;4.45;;;;;;;;;;6212898;23;20358;-89
2022/03/14 17:02:30;;;;;;;23.67;4.55;;;;;;;;;;6245823;23;20027;-85
2022/03/14 17:04:59;;;;;;;16.40;3.95;;;;;;;;;;6246553;22;20389;-88
2022/03/14 17:08:04;;;;;;;15.25;3.80;;;;;;;;;;6228409;23;20089;-91
2022/03/14 17:10:36;;;;;;;14.73;3.55;;;;;;;;;;6245693;23;20020;-87
2022/03/14 17:13:07;;;;;;;13.50;3.22;;;;;;;;;;6238652;23;20043;-94
2022/03/14 17:15:33;;;;;;;14.63;4.60;;;;;;;;;;6239378;23;20024;-84
2022/03/14 17:18:39;;;;;;;16.60;3.65;;;;;;;;;;6236878;23;20026;-88
2022/03/14 17:21:12;;;;;;;19.83;3.72;;;;;;;;;;6186474;23;20512;-96
2022/03/14 17:23:38;;;;;;;16.35;3.70;;;;;;;;;;6186704;23;20028;-94
2022/03/14 17:26:05;;;;;;;18.27;3.80;;;;;;;;;;6237540;23;20030;-90
2022/03/14 17:28:32;;;;;;;17.25;4.15;;;;;;;;;;6212832;23;20012;-90
2022/03/14 17:30:58;;;;;;;19.70;3.92;;;;;;;;;;6209581;23;20020;-91
2022/03/14 17:33:25;;;;;;;13.57;3.70;;;;;;;;;;6244921;23;20027;-89
2022/03/14 17:35:52;;;;;;;13.68;3.47;;;;;;;;;;6237557;23;20020;-94
2022/03/14 17:38:18;;;;;;;13.05;5.07;;;;;;;;;;6191153;23;20016;-88
2022/03/14 17:40:46;;;;;;;23.80;4.30;;;;;;;;;;6238837;23;20016;-89
2022/03/14 17:43:12;;;;;;;12.43;3.72;;;;;;;;;;6192132;23;20024;-95
2022/03/14 17:45:39;;;;;;;13.57;3.42;;;;;;;;;;6162277;23;20016;-93
2022/03/14 17:48:20;;;;;;;15.30;3.40;;;;;;;;;;6213355;23;20020;-92
2022/03/14 17:50:46;;;;;;;17.25;3.78;;;;;;;;;;6188162;23;20020;-89
2022/03/14 17:53:13;;;;;;;21.63;4.53;;;;;;;;;;6187922;23;20043;-92
2022/03/14 17:55:39;;;;;;;16.50;4.10;;;;;;;;;;6188549;23;20494;-93
2022/03/14 17:58:05;;;;;;;14.95;4.13;;;;;;;;;;6187202;23;20012;-88
2022/03/14 18:00:33;;;;;;;23.50;4.65;;;;;;;;;;6239044;23;20016;-93
2022/03/14 18:03:01;;;;;;;15.63;4.22;;;;;;;;;;6242526;23;20127;-89
2022/03/14 18:05:28;;;;;;;20.83;4.53;;;;;;;;;;6211277;23;20028;-93
2022/03/14 18:07:55;;;;;;;19.35;4.55;;;;;;;;;;6236867;23;20031;-87
2022/03/14 18:10:24;;;;;;;11.05;3.78;;;;;;;;;;6208889;23;20484;-85
2022/03/14 18:12:50;;;;;;;24.17;5.05;;;;;;;;;;6208948;23;20459;-94
2022/03/14 18:15:16;;;;;;;22.65;4.70;;;;;;;;;;6240841;23;20023;-88
2022/03/14 18:18:02;;;;;;;22.10;4.50;;;;;;;;;;6256723;23;20023;-87
2022/03/14 18:20:28;;;;;;;17.75;4.85;;;;;;;;;;6235640;23;20027;-87
2022/03/14 18:23:13;;;;;;;21.35;4.13;;;;;;;;;;6261147;22;20016;-87
2022/03/14 18:25:39;;;;;;;20.95;4.55;;;;;;;;;;6244177;23;20016;-89
2022/03/14 18:28:05;;;;;;;24.23;4.57;;;;;;;;;;6221345;23;20016;-90
2022/03/14 18:30:31;;;;;;;21.25;5.07;;;;;;;;;;6211862;23;20395;-92
2022/03/14 18:33:04;;;;;;;17.27;4.28;;;;;;;;;;6217392;23;20020;-94
2022/03/14 18:35:31;;;;;;;13.48;4.22;;;;;;;;;;6239859;23;20024;-89
2022/03/14 18:37:58;;;;;;;20.60;4.65;;;;;;;;;;6244738;23;20523;-89
2022/03/14 18:40:25;;;;;;;23.25;4.20;;;;;;;;;;6240636;23;20016;-96
2022/03/14 18:42:57;;;;;;;17.38;4.60;;;;;;;;;;6213227;23;20024;-91
2022/03/14 18:45:24;;;;;;;14.93;4.13;;;;;;;;;;6235074;23;20024;-91
2022/03/14 18:47:50;;;;;;;19.35;4.43;;;;;;;;;;6237994;23;20020;-93
2022/03/14 18:50:17;;;;;;;18.45;4.43;;;;;;;;;;6240092;23;20044;-91
2022/03/14 18:52:49;;;;;;;19.67;4.38;;;;;;;;;;6243522;23;20016;-94
2022/03/14 18:55:24;;;;;;;28.63;4.78;;;;;;;;;;6228608;23;20024;-86
2022/03/14 18:57:51;;;;;;;25.70;5.03;;;;;;;;;;6202311;23;20020;-86
2022/03/14 19:00:23;;;;;;;22.60;4.93;;;;;;;;;;6225258;23;20023;-92
2022/03/14 19:02:49;;;;;;;14.57;4.25;;;;;;;;;;6224059;23;20024;-92
2022/03/14 19:05:15;;;;;;;17.38;4.70;;;;;;;;;;6224535;23;20024;-88
2022/03/14 19:07:43;;;;;;;21.00;5.95;;;;;;;;;;6252788;23;20097;-94
2022/03/14 19:10:35;;;;;;;18.63;4.85;;;;;;;;;;6220722;23;20035;-89
2022/03/14 19:13:01;;;;;;;19.98;4.80;;;;;;;;;;6246859;23;20028;-91
2022/03/14 19:15:29;;;;;;;23.65;5.05;;;;;;;;;;6217821;23;20028;-89
2022/03/14 19:17:55;;;;;;;23.52;7.00;;;;;;;;;;6222704;22;20012;-96
2022/03/14 19:23:22;;;;;;;31.40;6.05;;;;;;;;;;6273784;22;20024;-87
2022/03/14 19:25:55;;;;;;;21.33;5.57;;;;;;;;;;6248648;22;20041;-89
2022/03/14 19:28:24;;;;;;;15.07;4.72;;;;;;;;;;6221302;22;20020;-89
2022/03/14 19:30:54;;;;;;;21.80;6.63;;;;;;;;;;6245178;22;20102;-85
2022/03/14 19:33:24;;;;;;;16.38;5.32;;;;;;;;;;6217197;22;20471;-93
2022/03/14 19:35:50;;;;;;;22.45;5.72;;;;;;;;;;6243122;22;20768;-90
2022/03/14 19:38:18;;;;;;;27.38;6.07;;;;;;;;;;6216672;22;20020;-94
2022/03/14 19:40:45;;;;;;;16.92;5.15;;;;;;;;;;6218489;22;20062;-94
2022/03/14 19:43:15;;;;;;;26.23;6.78;;;;;;;;;;6217728;22;20015;-94
2022/03/14 19:45:42;;;;;;;17.25;5.78;;;;;;;;;;6218590;22;20486;-93
2022/03/14 19:48:08;;;;;;;24.45;7.15;;;;;;;;;;6216991;22;20565;-91
2022/03/14 19:50:51;;;;;;;22.70;6.65;;;;;;;;;;6222835;22;20117;-90
2022/03/14 19:53:17;;;;;;;27.50;7.18;;;;;;;;;;6215023;22;20339;-87
2022/03/14 19:58:39;;;;;;;23.10;5.60;;;;;;;;;;6263006;22;20028;-88
2022/03/14 20:01:30;;;;;;;25.15;6.45;;;;;;;;;;6225582;23;20027;-94
2022/03/14 20:03:56;;;;;;;20.65;6.78;;;;;;;;;;6227920;23;20031;-88
2022/03/14 20:06:27;;;;;;;22.52;6.07;;;;;;;;;;6211355;23;20357;-91
2022/03/14 20:08:57;;;;;;;26.00;6.32;;;;;;;;;;6182167;23;20437;-94
2022/03/14 20:17:21;;;;;;;22.70;7.05;;;;;;;;;;6259376;22;20035;-93
2022/03/14 20:20:27;;;;;;;26.67;7.32;;;6.70;99.90;;;;;;6272558;22;20030;-93
2022/03/14 20:26:09;;;;;;;27.67;7.93;;;;;;;;;;6273829;22;20030;-89
2022/03/14 20:28:36;;;;;;;28.55;6.53;;;;;;;;;;6219968;22;20024;-94
2022/03/14 20:36:51;;;;;;;19.13;5.43;;;;;;;;;;6237622;23;20031;-89
2022/03/14 20:39:17;;;;;;;22.70;5.30;;;;;;;;;;6210391;23;20460;-85
2022/03/14 20:41:43;;;;;;;23.77;6.00;;;;;;;;;;6205777;23;20052;-88
2022/03/14 20:44:28;;;;;;;21.20;6.55;;;;;;;;;;6207653;23;20024;-91
2022/03/14 20:46:54;;;;;;;26.23;5.85;;;;;;;;;;6232353;23;20020;-85
2022/03/14 20:49:21;;;;;;;16.77;5.88;;;;;;;;;;6234580;23;20020;-88
2022/03/14 20:51:47;;;;;;;24.52;5.40;;;;;;;;;;6230082;23;20040;-88
2022/03/14 20:54:14;;;;;;;18.08;5.22;;;;;;;;;;6207837;23;20253;-91
2022/03/14 20:56:59;;;;;;;21.35;6.35;;;;;;;;;;6208202;23;20460;-89
2022/03/14 20:59:25;;;;;;;;;;;;;;;;;;6232358;23;20123;-84
2022/03/14 21:03:03;;;;;;;26.38;6.30;;;;;;;;;;6212838;23;19967;-87
2022/03/14 21:04:57;;;;;;;27.52;8.60;;;;;;;;;;6233092;23;20035;-85
2022/03/14 21:07:26;;;;;;;28.05;7.90;;;;;;;;;;6233308;23;20353;-88
2022/03/14 21:09:55;;;;;;;30.08;10.85;;;;;;;;;;6233324;23;20421;-88
2022/03/14 21:12:21;;;;;;;28.05;7.93;;;;;;;;;;6233502;23;20393;-83
2022/03/14 21:18:30;;;;;;;22.52;6.13;;;;;;;;;;6229708;23;20024;-82
2022/03/14 21:20:58;;;;;;;24.30;6.25;;;;;;;;;;6232220;23;20439;-85
2022/03/14 21:23:24;;;;;;;33.20;15.07;;;;;;;;;;6230867;23;20026;-84
2022/03/14 21:25:51;;;;;;;32.95;12.52;;;;;;;;;;6232876;23;20531;-83
2022/03/14 21:28:19;;;;;;;31.67;11.00;;;;;;;;;;6232105;23;20760;-83
2022/03/14 21:30:46;;;;;;;33.22;10.07;;;;;;;;;;6235452;23;20012;-82
2022/03/14 21:33:13;;;;;;;21.02;9.32;;;;;;;;;;6234212;23;20024;-83
2022/03/14 21:35:41;;;;;;;22.80;9.50;;;;;;;;;;6218068;23;20107;-86
2022/03/14 21:38:08;;;;;;;25.10;8.65;;;;;;;;;;6218976;23;20016;-85
2022/03/14 21:40:34;;;;;;;27.98;8.68;;;;;;;;;;6225686;23;20012;-82
2022/03/14 21:45:59;;;;;;;34.13;6.63;;;;;;;;;;6164826;23;20081;-90
2022/03/14 21:48:26;;;;;;;18.73;6.50;;;;;;;;;;6156691;23;20017;-91
2022/03/14 21:50:52;;;;;;;19.83;6.13;;;;;;;;;;6177700;23;20397;-92
2022/03/14 21:53:18;;;;;;;14.32;5.78;;;;;;;;;;6209137;23;20020;-90
2022/03/14 21:55:44;;;;;;;26.90;7.10;;;;;;;;;;6212467;23;20125;-90
2022/03/14 21:58:12;;;;;;;19.95;6.03;;;;;;;;;;6184368;23;20421;-92
2022/03/14 22:00:47;;;;;;;26.63;5.97;;;;;;;;;;6189078;23;20016;-85
2022/03/14 22:03:19;;;;;;;37.38;6.82;;;;;;;;;;6185932;23;20070;-93
2022/03/14 22:05:45;;;;;;;33.22;7.18;;;;;;;;;;6236107;23;20091;-92
2022/03/14 22:08:13;;;;;;;22.75;7.43;;;;;;;;;;6184960;23;20024;-87
2022/03/14 22:10:39;;;;;;;22.30;7.28;;;;;;;;;;6183970;23;20012;-88
2022/03/14 22:13:05;;;;;;;23.20;6.35;;;;;;;;;;6238025;23;20019;-86
2022/03/14 22:15:32;;;;;;;22.77;6.65;;;;;;;;;;6207753;23;20027;-90
2022/03/14 22:17:58;;;;;;;27.33;7.13;;;;;;;;;;6211417;23;20831;-91
2022/03/14 22:20:25;;;;;;;17.83;6.40;;;;;;;;;;6159856;23;20047;-92
2022/03/14 22:22:51;;;;;;;20.98;6.75;;;;;;;;;;6211875;23;20023;-91
2022/03/14 22:25:17;;;;;;;20.45;6.65;;;;;;;;;;6211730;23;20014;-89
2022/03/14 22:27:43;;;;;;;25.63;7.00;;;;;;;;;;6237200;23;20040;-89
2022/03/14 22:30:10;;;;;;;29.67;10.13;;;;;;;;;;6238106;23;20468;-86
2022/03/14 22:32:36;;;;;;;29.45;9.95;;;;;;;;;;6235491;23;20023;-91
2022/03/14 22:35:03;;;;;;;21.77;7.75;;;;;;;;;;6212457;23;20027;-88
2022/03/14 22:37:31;;;;;;;24.77;7.28;;;;;;;;;;6236037;23;20017;-84
2022/03/14 22:39:57;;;;;;;18.25;7.57;;;;;;;;;;6236332;23;20648;-90
2022/03/14 22:42:23;;;;;;;25.55;7.07;;;;;;;;;;6233929;23;20038;-91
2022/03/14 22:44:49;;;;;;;25.02;6.88;;;;;;;;;;6184959;23;20023;-88
2022/03/14 22:47:16;;;;;;;26.52;6.97;;;;;;;;;;6233305;23;20473;-92
2022/03/14 22:49:42;;;;;;;27.27;7.40;;;;;;;;;;6208757;23;20016;-89
2022/03/14 22:52:08;;;;;;;24.25;7.80;;;;;;;;;;6233654;23;20106;-87
2022/03/14 22:54:35;;;;;;;23.13;7.30;;;;;;;;;;6233207;23;20173;-85